Time;durP1;ratioP1;P1;durP2;ratioP2;P2;SDS_P1;SDS_P2;PMS_P1;PMS_P2;Temp;Humidity;BMP_temperature;BMP_pressure;BME280_temperature;BME280_humidity;BME280_pressure;Samples;Min_cycle;Max_cycle;Signal;HPM_P1;HPM_P2
2023/05/27 00:01:36;;;;;;;9.13;3.93;;;;;;;13.05;74.62;102931.00;6018747;29;20249;-75
2023/05/27 00:04:57;;;;;;;9.53;4.57;;;;;;;13.01;74.21;102928.56;6040319;29;20230;-77
2023/05/27 00:08:20;;;;;;;6.57;4.00;;;;;;;12.78;75.21;102925.56;6046011;29;20665;-76
2023/05/27 00:11:41;;;;;;;10.53;3.83;;;;;;;12.82;75.26;102931.63;6018529;29;20225;-76
2023/05/27 00:15:04;;;;;;;8.13;4.10;;;;;;;12.86;75.45;102930.44;6040941;29;20265;-77
2023/05/27 00:18:25;;;;;;;5.63;3.23;;;;;;;12.96;75.50;102934.28;6038866;29;20518;-76
2023/05/27 00:21:46;;;;;;;7.80;3.70;;;;;;;12.90;74.85;102931.09;6033023;29;20249;-75
2023/05/27 00:25:09;;;;;;;11.27;5.30;;;;;;;12.82;74.70;102931.63;6037144;29;20245;-76
2023/05/27 00:28:31;;;;;;;8.93;3.30;;;;;;;12.65;75.34;102932.72;6022689;29;20505;-76
2023/05/27 00:31:53;;;;;;;5.90;4.63;;;;;;;12.84;74.99;102929.69;6020499;29;20234;-77
2023/05/27 00:35:14;;;;;;;8.40;4.27;;;;;;;12.70;75.28;102932.44;6042117;29;20313;-78
2023/05/27 00:38:36;;;;;;;6.97;3.47;;;;;;;12.78;75.25;102932.78;6044353;29;21265;-78
2023/05/27 00:41:58;;;;;;;6.70;4.33;;;;;;;12.74;75.96;102925.84;6041495;29;20234;-77
2023/05/27 00:45:19;;;;;;;14.47;3.97;;;;;;;12.63;75.48;102926.53;6038776;29;20331;-78
2023/05/27 00:48:42;;;;;;;12.23;4.60;;;;;;;12.58;75.73;102925.06;6036878;29;20233;-77
2023/05/27 00:52:03;;;;;;;5.13;3.23;;;;;;;12.61;75.75;102927.59;6010222;29;20233;-76
2023/05/27 00:55:25;;;;;;;7.27;3.93;;;;;;;12.66;75.87;102915.50;6040202;29;20238;-77
2023/05/27 00:58:46;;;;;;;9.00;4.37;;;;;;;12.59;76.61;102922.28;6030516;29;22085;-78
2023/05/27 01:02:07;;;;;;;9.80;4.53;;;;;;;12.52;76.42;102915.53;6039646;29;20246;-77
2023/05/27 01:05:29;;;;;;;11.57;5.20;;;;;;;12.43;76.18;102926.09;6033944;29;20237;-77
2023/05/27 01:08:58;;;;;;;7.70;3.90;;;;;;;12.49;76.34;102921.16;6046992;29;20230;-77
2023/05/27 01:12:28;;;;;;;10.33;4.10;;;;;;;12.44;76.56;102925.97;5997883;29;20234;-76
2023/05/27 01:15:54;;;;;;;7.97;3.90;;;;;;;12.49;76.49;102926.56;6043414;29;20245;-77
2023/05/27 01:19:18;;;;;;;10.87;4.37;;;;;;;12.46;77.14;102926.75;6032530;29;20230;-78
2023/05/27 01:22:43;;;;;;;8.90;4.03;;;;;;;12.43;77.14;102935.03;6041827;29;20233;-78
2023/05/27 01:26:04;;;;;;;15.13;4.33;;;;;;;12.34;76.50;102932.94;6041698;29;20234;-79
2023/05/27 01:29:29;;;;;;;5.40;3.57;;;;;;;12.33;77.32;102927.63;6043810;29;20233;-77
2023/05/27 01:32:56;;;;;;;7.87;4.90;;;;;;;12.41;76.72;102926.16;6032719;29;20538;-77
2023/05/27 01:36:21;;;;;;;8.93;3.87;;;;;;;12.30;77.06;102926.00;6043853;29;20398;-77
2023/05/27 01:39:44;;;;;;;7.80;4.07;;;;;;;12.25;77.49;102920.00;6042149;29;20784;-77
2023/05/27 01:43:07;;;;;;;9.33;4.23;;;;;;;12.21;77.57;102926.56;6040970;29;20242;-78
2023/05/27 01:46:28;;;;;;;12.43;4.83;;;;;;;12.16;77.46;102925.97;6042108;29;20237;-78
2023/05/27 01:49:49;;;;;;;10.43;3.80;;;;;;;12.10;77.24;102912.84;6043597;29;20238;-77
2023/05/27 01:53:11;;;;;;;8.67;4.00;;;;;;;11.97;77.95;102912.72;6031909;29;20253;-77
2023/05/27 01:56:35;;;;;;;18.67;5.60;;;;;;;11.99;78.76;102912.66;6035705;29;20230;-78
2023/05/27 01:59:57;;;;;;;8.03;4.33;;;;;;;12.01;78.88;102910.72;6046916;29;20238;-78
2023/05/27 02:03:19;;;;;;;5.50;3.40;;;;;;;12.06;78.44;102903.19;6042584;29;20230;-77
2023/05/27 02:06:40;;;;;;;10.10;5.17;;;;;;;11.70;78.28;102898.22;6045199;29;20659;-78
2023/05/27 02:10:00;;;;;;;4.50;4.07;;;;;;;11.76;78.80;102905.09;6031554;29;20221;-78
2023/05/27 02:13:23;;;;;;;9.33;4.23;;;;;;;11.84;79.12;102906.38;6039561;29;20596;-78
2023/05/27 02:16:44;;;;;;;14.47;5.60;;;;;;;11.91;78.42;102901.47;6041278;29;20363;-77
2023/05/27 02:20:06;;;;;;;8.80;5.13;;;;;;;11.82;78.95;102902.00;6031984;29;20246;-77
2023/05/27 02:23:30;;;;;;;10.70;5.47;;;;;;;11.86;78.17;102903.56;6035131;29;20238;-78
2023/05/27 02:26:52;;;;;;;6.77;3.20;;;;;;;11.85;79.35;102891.88;6028233;29;20241;-78
2023/05/27 02:30:15;;;;;;;7.80;5.07;;;;;;;11.86;78.05;102898.16;6032486;29;20242;-78
2023/05/27 02:33:37;;;;;;;5.73;3.87;;;;;;;11.84;78.45;102905.50;6047316;29;20235;-75
2023/05/27 02:36:58;;;;;;;14.03;5.10;;;;;;;11.74;78.72;102907.03;6033871;29;20222;-79
2023/05/27 02:40:25;;;;;;;8.03;4.37;;;;;;;11.85;78.71;102899.97;6039032;29;20237;-78
2023/05/27 02:43:47;;;;;;;6.30;3.73;;;;;;;11.75;78.13;102900.63;6043510;29;20234;-78
2023/05/27 02:47:10;;;;;;;7.20;4.50;;;;;;;11.72;78.73;102903.53;6043507;29;20230;-75
2023/05/27 02:50:31;;;;;;;5.67;3.30;;;;;;;11.67;78.60;102909.22;6018580;29;20325;-77
2023/05/27 02:53:52;;;;;;;10.87;3.97;;;;;;;11.56;78.88;102908.09;6033894;29;20230;-76
2023/05/27 02:57:13;;;;;;;5.37;2.80;;;;;;;11.70;78.82;102914.44;6040422;29;20237;-76
2023/05/27 03:00:35;;;;;;;10.53;3.83;;;;;;;11.73;78.58;102907.97;6042000;29;20238;-76
2023/05/27 03:03:57;;;;;;;4.10;3.30;;;;;;;11.72;79.13;102909.78;6034415;29;20261;-77
2023/05/27 03:07:18;;;;;;;12.07;4.77;;;;;;;11.73;78.97;102907.97;6020273;29;20238;-77
2023/05/27 03:10:39;;;;;;;9.50;3.63;;;;;;;11.66;78.25;102914.69;6052486;29;20234;-77
2023/05/27 03:14:01;;;;;;;14.80;3.87;;;;;;;11.70;78.93;102918.97;6013826;29;20680;-77
2023/05/27 03:17:23;;;;;;;9.77;4.83;;;;;;;11.63;78.67;102917.56;6050416;29;20316;-78
2023/05/27 03:20:45;;;;;;;9.00;5.00;;;;;;;11.63;79.08;102913.03;6047934;29;20600;-78
2023/05/27 03:24:06;;;;;;;8.23;4.27;;;;;;;11.60;78.72;102921.31;6047397;29;20237;-77
2023/05/27 03:27:28;;;;;;;7.47;4.00;;;;;;;11.54;78.36;102910.00;6046007;29;20233;-74
2023/05/27 03:30:49;;;;;;;4.77;3.00;;;;;;;11.58;78.99;102909.75;6029971;29;20234;-75
2023/05/27 03:34:20;;;;;;;5.83;4.17;;;;;;;11.55;78.95;102903.66;6044020;29;20548;-74
2023/05/27 03:37:45;;;;;;;16.70;4.83;;;;;;;11.61;78.87;102911.38;6045945;29;20238;-75
2023/05/27 03:41:06;;;;;;;12.23;5.53;;;;;;;11.62;78.86;102915.84;6026059;29;20250;-74
2023/05/27 03:44:27;;;;;;;6.93;3.43;;;;;;;11.70;78.79;102913.59;6041026;29;20687;-75
2023/05/27 03:47:48;;;;;;;9.27;4.50;;;;;;;11.53;78.60;102911.00;6043408;29;20607;-74
2023/05/27 03:51:10;;;;;;;6.60;4.30;;;;;;;11.57;78.74;102912.53;6045297;29;20234;-75
2023/05/27 03:54:33;;;;;;;11.07;4.67;;;;;;;11.67;78.46;102911.94;6044322;29;20244;-74
2023/05/27 03:57:54;;;;;;;10.23;4.53;;;;;;;11.70;78.22;102913.59;6051384;29;20233;-75
2023/05/27 04:01:16;;;;;;;9.50;4.47;;;;;;;11.82;79.04;102918.22;6041410;29;20230;-74
2023/05/27 04:04:37;;;;;;;12.20;3.80;;;;;;;11.83;79.14;102914.53;6037413;29;20614;-76
2023/05/27 04:07:58;;;;;;;14.50;4.50;;;;;;;11.87;78.80;102924.19;6047873;29;20316;-74
2023/05/27 04:11:22;;;;;;;3.67;3.03;;;;;;;12.01;78.63;102919.69;6048366;29;20643;-74
2023/05/27 04:14:45;;;;;;;8.23;4.63;;;;;;;11.99;77.66;102921.63;6047215;29;20568;-75
2023/05/27 04:18:06;;;;;;;10.00;4.90;;;;;;;11.99;78.08;102923.47;6047775;29;20246;-74
2023/05/27 04:21:27;;;;;;;9.47;4.73;;;;;;;11.95;78.07;102922.78;6045296;29;20245;-75
2023/05/27 04:24:50;;;;;;;9.27;3.87;;;;;;;11.95;77.97;102916.53;6033711;29;20237;-76
2023/05/27 04:28:13;;;;;;;13.93;5.23;;;;;;;11.98;76.97;102910.91;6042235;29;20246;-74
2023/05/27 04:31:37;;;;;;;7.97;5.73;;;;;;;12.07;77.51;102910.34;6045229;29;20230;-75
2023/05/27 04:35:01;;;;;;;9.90;4.30;;;;;;;12.00;76.60;102906.28;6044221;29;20258;-75
2023/05/27 04:38:23;;;;;;;17.93;5.77;;;;;;;12.09;76.35;102905.72;6038348;29;20250;-74
2023/05/27 04:41:49;;;;;;;6.00;3.33;;;;;;;12.26;76.41;102907.34;6042748;29;20791;-75
2023/05/27 04:45:29;;;;;;;10.37;4.47;;;;;;;12.38;76.68;102909.25;6044547;29;20573;-75
2023/05/27 04:48:50;;;;;;;15.40;4.10;;;;;;;12.36;76.46;102901.25;6043295;29;20237;-75
2023/05/27 04:52:11;;;;;;;5.97;3.27;;;;;;;12.39;76.33;102906.44;6041050;29;20242;-75
2023/05/27 04:55:33;;;;;;;7.83;3.53;;;;;;;12.45;75.87;102907.91;6043699;29;20744;-74
2023/05/27 04:58:54;;;;;;;11.53;5.00;;;;;;;12.49;75.65;102912.16;6044480;29;20797;-74
2023/05/27 05:02:22;;;;;;;4.80;3.83;;;;;;;12.58;75.40;102901.59;6045225;29;20245;-75
2023/05/27 05:05:55;;;;;;;6.57;4.33;;;;;;;12.56;75.04;102903.53;6040864;29;20237;-75
2023/05/27 05:09:17;;;;;;;9.73;3.43;;;;;;;12.69;75.54;102900.91;6046561;29;20246;-76
2023/05/27 05:12:41;;;;;;;6.67;3.73;;;;;;;12.81;74.76;102910.91;6042178;29;20308;-75
2023/05/27 05:16:02;;;;;;;8.20;3.97;;;;;;;12.82;75.23;102896.44;6031968;29;20266;-75
2023/05/27 05:19:25;;;;;;;8.43;3.93;;;;;;;12.82;74.30;102889.19;6043433;29;20238;-75
2023/05/27 05:22:46;;;;;;;8.23;4.00;;;;;;;12.65;74.83;102893.97;6044290;29;20241;-75
2023/05/27 05:26:07;;;;;;;9.53;3.90;;;;;;;12.63;75.78;102890.47;6043046;29;20241;-75
2023/05/27 05:29:33;;;;;;;9.97;5.20;;;;;;;12.85;75.72;102896.22;6042601;29;20284;-74
2023/05/27 05:32:54;;;;;;;4.27;3.13;;;;;;;13.11;74.70;102895.41;6040269;29;20313;-75
2023/05/27 05:36:20;;;;;;;10.40;4.03;;;;;;;13.25;74.74;102889.03;6043889;29;20569;-74
2023/05/27 05:39:49;;;;;;;4.23;3.27;;;;;;;13.35;74.47;102890.16;6041101;29;20258;-75
2023/05/27 05:43:10;;;;;;;14.10;4.30;;;;;;;13.37;74.27;102896.34;6045734;29;20230;-75
2023/05/27 05:46:31;;;;;;;7.83;4.77;;;;;;;13.51;73.78;102898.97;6043023;29;20333;-74
2023/05/27 05:49:52;;;;;;;12.43;5.40;;;;;;;13.64;73.41;102889.03;6044532;29;20245;-74
2023/05/27 05:53:14;;;;;;;6.13;4.03;;;;;;;13.73;73.21;102898.34;6042725;29;20237;-74
2023/05/27 05:56:35;;;;;;;9.50;3.83;;;;;;;13.76;73.08;102899.00;6027941;29;20253;-74
2023/05/27 05:59:56;;;;;;;9.73;4.70;;;;;;;13.85;72.93;102897.50;6041638;29;20687;-74
2023/05/27 06:03:17;;;;;;;8.80;4.00;;;;;;;13.87;72.70;102907.25;6030329;29;20430;-74
2023/05/27 06:06:43;;;;;;;5.67;3.17;;;;;;;14.06;72.74;102904.13;6015393;29;20230;-74
2023/05/27 06:10:34;;;;;;;6.13;3.47;;;;;;;14.15;72.17;102895.31;6040147;29;20248;-75
2023/05/27 06:13:55;;;;;;;5.73;3.23;;;;;;;14.27;72.05;102908.00;6037586;29;20237;-74
2023/05/27 06:17:16;;;;;;;4.03;3.63;;;;;;;14.34;71.55;102904.78;6034991;29;20329;-73
2023/05/27 06:20:37;;;;;;;8.93;3.63;;;;;;;14.42;71.18;102901.50;6045501;29;20230;-74
2023/05/27 06:23:58;;;;;;;10.57;4.73;;;;;;;14.53;70.90;102904.31;6039821;29;20522;-74
2023/05/27 06:27:22;;;;;;;8.43;3.97;;;;;;;14.49;70.45;102900.09;6031198;29;20241;-76
2023/05/27 06:30:43;;;;;;;9.87;4.40;;;;;;;14.69;70.44;102902.19;6027745;29;20234;-73
2023/05/27 06:34:05;;;;;;;7.30;3.70;;;;;;;14.78;69.79;102906.94;6047494;29;20269;-73
2023/05/27 06:37:27;;;;;;;12.00;4.40;;;;;;;14.87;69.80;102900.81;6043438;29;20257;-74
2023/05/27 06:40:48;;;;;;;11.43;4.03;;;;;;;14.92;69.23;102895.03;6038721;29;20240;-73
2023/05/27 06:44:11;;;;;;;7.10;3.60;;;;;;;15.05;69.21;102898.59;6033887;29;20237;-74
2023/05/27 06:47:52;;;;;;;6.80;3.00;;;;;;;15.24;69.31;102893.50;6044398;29;20259;-75
2023/05/27 06:51:13;;;;;;;5.93;3.73;;;;;;;15.34;68.64;102882.78;6039624;29;20241;-73
2023/05/27 06:54:34;;;;;;;11.30;4.00;;;;;;;14.84;69.06;102882.06;6033351;29;20242;-74
2023/05/27 06:58:15;;;;;;;14.57;4.67;;;;;;;14.97;69.48;102884.72;6037706;29;20238;-73
2023/05/27 07:01:45;;;;;;;13.63;3.77;;;;;;;15.08;68.92;102873.91;6038456;29;20237;-73
2023/05/27 07:05:09;;;;;;;9.80;4.27;;;;;;;15.44;68.63;102878.38;6030712;29;20246;-73
2023/05/27 07:08:30;;;;;;;15.23;4.20;;;;;;;15.68;68.44;102873.78;6031456;29;20272;-75
2023/05/27 07:12:06;;;;;;;6.90;3.90;;;;;;;16.08;68.13;102877.81;6027736;29;20750;-73
2023/05/27 07:15:40;;;;;;;8.63;3.70;;;;;;;16.18;67.14;102880.66;6031091;29;20261;-75
2023/05/27 07:19:02;;;;;;;9.03;3.50;;;;;;;16.07;66.59;102886.06;6015485;29;20663;-74
2023/05/27 07:22:26;;;;;;;6.30;2.90;;;;;;;15.85;65.66;102876.88;6037471;29;20241;-74
2023/05/27 07:25:47;;;;;;;16.60;4.37;;;;;;;16.00;65.88;102875.69;6036412;29;20222;-74
2023/05/27 07:29:10;;;;;;;10.27;4.00;;;;;;;16.04;66.58;102865.44;6034656;29;20753;-73
2023/05/27 07:32:51;;;;;;;5.77;3.33;;;;;;;16.47;65.99;102863.69;6041464;29;20225;-74
2023/05/27 07:36:13;;;;;;;6.87;3.57;;;;;;;15.74;66.36;102867.84;6044430;29;20233;-74
2023/05/27 07:39:35;;;;;;;9.10;5.87;;;;;;;16.00;66.71;102872.09;6026375;29;20237;-74
2023/05/27 07:42:56;;;;;;;10.37;3.93;;;;;;;16.32;65.31;102869.50;6050009;29;20229;-74
2023/05/27 07:46:16;;;;;;;4.70;3.17;;;;;;;16.82;64.74;102870.81;6044446;29;20230;-73
2023/05/27 07:49:37;;;;;;;6.07;4.27;;;;;;;17.06;63.72;102864.19;6042732;29;20759;-73
2023/05/27 07:53:22;;;;;;;6.77;3.87;;;;;;;17.31;62.67;102854.78;6045335;29;20241;-74
2023/05/27 07:56:44;;;;;;;5.40;2.77;;;;;;;17.35;62.83;102856.25;6054768;29;20254;-74
2023/05/27 08:00:06;;;;;;;5.77;2.93;;;;;;;16.50;62.76;102852.56;6043433;29;20234;-74
2023/05/27 08:03:47;;;;;;;6.27;3.57;;;;;;;16.00;62.78;102853.91;6043660;29;20325;-74
2023/05/27 08:07:11;;;;;;;10.00;3.83;;;;;;;16.60;62.40;102852.69;6052768;29;20234;-74
2023/05/27 08:11:02;;;;;;;9.70;3.90;;;;;;;17.01;62.23;102841.91;6038815;29;20230;-73
2023/05/27 08:14:44;;;;;;;7.20;3.60;;;;;;;17.08;61.34;102842.25;6039648;29;20238;-74
2023/05/27 08:18:24;;;;;;;5.07;3.23;;;;;;;17.01;61.33;102832.84;6039604;29;20345;-73
2023/05/27 08:22:10;;;;;;;7.00;3.43;;;;;;;17.63;62.93;102831.06;6018259;29;20345;-73
2023/05/27 08:25:47;;;;;;;4.80;2.63;;;;;;;18.06;62.43;102826.31;6027958;29;20967;-72
2023/05/27 08:29:18;;;;;;;7.23;3.50;;;;;;;18.32;59.63;102826.66;6039972;29;20234;-71
2023/05/27 08:32:53;;;;;;;6.10;3.00;;;;;;;18.82;59.57;102824.78;6016517;29;20237;-73
2023/05/27 08:36:15;;;;;;;5.40;3.20;;;;;;;18.82;58.87;102819.31;6031657;29;20238;-72
2023/05/27 08:39:39;;;;;;;15.20;4.50;;;;;;;19.31;58.86;102816.47;6025323;29;20237;-73
2023/05/27 08:43:09;;;;;;;10.77;4.38;;;;;;;19.63;58.17;102807.97;6035762;29;20241;-72
2023/05/27 08:46:37;;;;;;;11.73;3.50;;;;;;;20.08;57.16;102811.69;6030983;29;20496;-73
2023/05/27 08:49:59;;;;;;;6.93;4.10;;;;;;;20.25;55.82;102804.56;6040956;29;20225;-73
2023/05/27 08:53:20;;;;;;;5.40;2.80;;;;;;;19.07;54.67;102805.97;6026424;29;20230;-73
2023/05/27 08:56:46;;;;;;;14.50;4.17;;;;;;;19.06;55.24;102798.78;6020089;29;20238;-72
2023/05/27 09:00:13;;;;;;;7.55;3.75;;;;;;;17.91;57.00;102799.50;6035374;29;20241;-72
2023/05/27 09:03:37;;;;;;;10.00;3.77;;;;;;;18.07;56.93;102791.66;6029088;29;20300;-73
2023/05/27 09:06:58;;;;;;;9.00;4.28;;;;;;;17.92;58.02;102785.69;6022213;29;20472;-71
2023/05/27 09:10:19;;;;;;;7.27;3.63;;;;;;;18.43;56.64;102782.00;6040675;29;20352;-72
2023/05/27 09:13:43;;;;;;;6.07;3.67;;;;;;;18.61;57.10;102794.84;6019835;29;22569;-72
2023/05/27 09:17:09;;;;;;;8.95;4.70;;;;;;;19.09;55.19;102792.16;6024992;29;20253;-71
2023/05/27 09:20:31;;;;;;;6.50;4.03;;;;;;;19.88;54.64;102790.84;6026146;29;20237;-73
2023/05/27 09:23:56;;;;;;;8.37;3.27;;;;;;;19.74;53.90;102784.00;6018116;29;20238;-73
2023/05/27 09:27:18;;;;;;;10.00;4.15;;;;;;;19.62;53.97;102773.38;6042381;29;20625;-73
2023/05/27 09:30:39;;;;;;;5.45;3.50;;;;;;;19.67;54.16;102782.84;6025500;29;20317;-73
2023/05/27 09:34:10;;;;;;;8.73;3.25;;;;;;;19.17;54.22;102775.88;6044381;29;20616;-73
2023/05/27 09:37:34;;;;;;;11.80;3.60;;;;;;;19.58;52.96;102774.69;6033195;29;20323;-73
2023/05/27 09:40:54;;;;;;;10.45;4.38;;;;;;;19.28;53.39;102772.13;6019187;29;20246;-70
2023/05/27 09:44:16;;;;;;;5.70;3.65;;;;;;;19.53;53.66;102769.66;6024291;29;20254;-69
2023/05/27 09:47:39;;;;;;;4.97;3.42;;;;;;;20.17;53.82;102766.94;6030851;29;20691;-69
2023/05/27 09:51:01;;;;;;;6.00;4.25;;;;;;;20.06;51.13;102766.28;6033064;29;20736;-72
2023/05/27 09:54:24;;;;;;;8.07;3.53;;;;;;;20.40;52.09;102756.47;6037755;29;20230;-72
2023/05/27 09:57:45;;;;;;;7.32;3.80;;;;;;;20.36;49.89;102753.16;6038484;29;20514;-71
2023/05/27 10:01:06;;;;;;;4.43;3.05;;;;;;;20.09;49.52;102757.78;6039609;29;20238;-72
2023/05/27 10:04:28;;;;;;;6.70;2.95;;;;;;;20.76;50.54;102750.00;6041177;29;20769;-72
2023/05/27 10:07:49;;;;;;;6.45;3.50;;;;;;;20.96;49.76;102742.47;6045285;29;20264;-72
2023/05/27 10:11:12;;;;;;;4.90;3.75;;;;;;;20.03;51.08;102745.53;6035684;29;20250;-74
2023/05/27 10:14:34;;;;;;;5.53;3.05;;;;;;;19.98;50.43;102745.16;6042862;29;20230;-76
2023/05/27 10:17:57;;;;;;;4.78;2.97;;;;;;;20.10;50.18;102732.97;6027483;29;20255;-75
2023/05/27 10:21:20;;;;;;;7.25;3.58;;;;;;;19.91;49.81;102744.91;6020422;29;20238;-76
2023/05/27 10:24:42;;;;;;;7.10;4.20;;;;;;;20.71;51.22;102733.16;6033156;29;20242;-76
2023/05/27 10:28:04;;;;;;;8.55;3.80;;;;;;;21.08;50.06;102731.13;6024386;29;22008;-74
2023/05/27 10:31:30;;;;;;;9.13;4.15;;;;;;;21.69;49.19;102735.66;6018635;29;20264;-73
2023/05/27 10:34:52;;;;;;;6.13;4.00;;;;;;;21.33;48.10;102721.19;6028454;29;20230;-73
2023/05/27 10:38:17;;;;;;;7.10;2.83;;;;;;;21.99;49.17;102722.28;6039203;29;20230;-74
2023/05/27 10:41:42;;;;;;;11.80;3.67;;;;;;;21.15;47.46;102721.22;6028688;29;20837;-75
2023/05/27 10:45:06;;;;;;;5.70;3.50;;;;;;;21.41;47.91;102721.25;6043317;29;20253;-76
2023/05/27 10:48:29;;;;;;;5.93;3.17;;;;;;;20.58;48.21;102711.63;6030658;29;20237;-76
2023/05/27 10:51:50;;;;;;;4.32;3.22;;;;;;;21.38;47.50;102705.13;6024571;29;20552;-74
2023/05/27 10:55:10;;;;;;;6.85;3.60;;;;;;;21.55;47.40;102701.41;6047964;29;20230;-75
2023/05/27 10:58:37;;;;;;;6.95;3.83;;;;;;;20.91;47.49;102703.69;6041289;29;20238;-76
2023/05/27 11:01:59;;;;;;;5.95;3.63;;;;;;;20.67;48.14;102704.34;6032687;29;20234;-76
2023/05/27 11:05:21;;;;;;;9.00;4.50;;;;;;;21.17;48.09;102688.16;6041223;29;20267;-74
2023/05/27 11:08:42;;;;;;;7.40;4.07;;;;;;;20.24;48.11;102699.63;6020709;29;20241;-74
2023/05/27 11:12:03;;;;;;;9.65;5.07;;;;;;;19.34;49.94;102701.31;6029406;29;20691;-76
2023/05/27 11:15:24;;;;;;;9.23;4.00;;;;;;;19.44;49.84;102701.31;6038583;29;20234;-75
2023/05/27 11:18:48;;;;;;;9.23;3.83;;;;;;;20.51;48.74;102691.34;6034683;29;20221;-75
2023/05/27 11:22:16;;;;;;;8.35;4.32;;;;;;;21.82;47.19;102684.75;6020784;29;20230;-78
2023/05/27 11:25:44;;;;;;;3.95;3.55;;;;;;;21.97;46.84;102679.50;6040739;29;20237;-74
2023/05/27 11:29:04;;;;;;;9.15;4.20;;;;;;;22.62;46.47;102675.91;6044020;29;20242;-75
2023/05/27 11:32:25;;;;;;;5.38;3.60;;;;;;;21.71;45.52;102670.44;6040641;29;20719;-75
2023/05/27 11:35:48;;;;;;;10.60;3.97;;;;;;;20.21;47.48;102657.97;6047407;29;20244;-75
2023/05/27 11:39:13;;;;;;;6.95;4.15;;;;;;;21.09;47.41;102664.25;6029015;29;20236;-73
2023/05/27 11:42:34;;;;;;;8.85;4.47;;;;;;;21.55;47.13;102668.47;6036044;29;20237;-75
2023/05/27 11:46:04;;;;;;;7.10;3.88;;;;;;;21.85;46.53;102654.25;6039952;29;20251;-75
2023/05/27 11:49:25;;;;;;;6.47;3.97;;;;;;;22.11;46.38;102651.41;6041303;29;20343;-76
2023/05/27 11:52:54;;;;;;;8.23;3.80;;;;;;;22.89;45.80;102636.19;6038388;29;20352;-77
2023/05/27 11:56:16;;;;;;;9.82;4.30;;;;;;;23.10;45.32;102635.63;6036315;29;20329;-74
2023/05/27 11:59:37;;;;;;;6.60;3.63;;;;;;;23.65;44.64;102631.91;6044824;29;20616;-77
2023/05/27 12:02:58;;;;;;;6.63;4.03;;;;;;;23.26;44.37;102624.59;6038527;29;20234;-76
2023/05/27 12:06:19;;;;;;;6.88;3.78;;;;;;;23.74;44.36;102613.41;6041043;29;20242;-75
2023/05/27 12:09:41;;;;;;;8.98;4.50;;;;;;;23.96;43.92;102617.25;6052806;29;20316;-76
2023/05/27 12:13:06;;;;;;;7.13;3.65;;;;;;;23.98;43.71;102616.03;6037856;29;20421;-75
2023/05/27 12:16:27;;;;;;;7.07;3.97;;;;;;;24.24;43.26;102604.72;6036988;29;20238;-75
2023/05/27 12:19:48;;;;;;;10.32;4.35;;;;;;;24.62;42.83;102603.69;6046694;29;20246;-76
2023/05/27 12:23:08;;;;;;;8.82;3.65;;;;;;;23.63;42.25;102594.53;6039359;29;20249;-75
2023/05/27 12:26:31;;;;;;;4.70;4.03;;;;;;;23.45;43.22;102592.03;6044364;29;20238;-75
2023/05/27 12:29:52;;;;;;;8.13;4.00;;;;;;;23.49;43.73;102587.88;6036101;29;20225;-75
2023/05/27 12:33:13;;;;;;;9.10;4.72;;;;;;;23.52;43.20;102579.28;6038495;29;20492;-75
2023/05/27 12:36:34;;;;;;;6.80;4.80;;;;;;;23.66;43.18;102572.13;6048206;29;20336;-75
2023/05/27 12:39:54;;;;;;;10.10;4.53;;;;;;;23.12;42.69;102579.38;6046154;29;20579;-74
2023/05/27 12:43:17;;;;;;;8.55;4.05;;;;;;;23.10;43.52;102573.19;6037197;29;20667;-76
2023/05/27 12:46:38;;;;;;;5.93;3.92;;;;;;;22.70;43.46;102562.28;6034679;29;20645;-75
2023/05/27 12:49:59;;;;;;;6.40;5.13;;;;;;;21.54;44.74;102554.22;6045446;29;21800;-75
2023/05/27 12:53:20;;;;;;;103.03;78.78;;;;;;;22.77;44.73;102547.69;6024920;29;20229;-76
2023/05/27 12:56:41;;;;;;;22.55;11.50;;;;;;;23.28;44.19;102539.97;6033927;29;20510;-76
2023/05/27 13:00:05;;;;;;;6.75;4.15;;;;;;;23.97;42.34;102531.63;6046639;29;20250;-74
2023/05/27 13:03:26;;;;;;;13.80;8.60;;;;;;;23.80;42.80;102535.56;6037548;29;20233;-76
2023/05/27 13:06:47;;;;;;;8.90;4.18;;;;;;;24.65;40.34;102531.63;6037975;29;20631;-75
2023/05/27 13:10:14;;;;;;;19.15;17.08;;;;;;;23.35;42.11;102522.56;6043734;29;20233;-75
2023/05/27 13:13:36;;;;;;;10.55;4.85;;;;;;;22.52;42.62;102531.34;6032831;29;20255;-76
2023/05/27 13:16:58;;;;;;;6.55;5.55;;;;;;;23.71;41.76;102522.88;6027355;29;20896;-77
2023/05/27 13:20:20;;;;;;;15.85;12.45;;;;;;;27.45;37.04;102507.97;6044084;29;20237;-76
2023/05/27 13:23:41;;;;;;;81.68;52.08;;;;;;;28.91;34.77;102510.72;6040166;29;20234;-74
2023/05/27 13:27:03;;;;;;;8.18;5.30;;;;;;;27.96;34.59;102505.59;6026932;29;20241;-73
2023/05/27 13:30:25;;;;;;;18.02;7.65;;;;;;;29.11;34.92;102497.63;6046419;29;20237;-74
2023/05/27 13:33:47;;;;;;;6.75;4.55;;;;;;;28.90;33.70;102498.75;6017100;29;20616;-74
2023/05/27 13:37:08;;;;;;;7.35;4.10;;;;;;;29.36;33.34;102489.44;6034483;29;20241;-73
2023/05/27 13:40:28;;;;;;;7.63;4.47;;;;;;;28.89;33.14;102485.94;6033781;29;20579;-73
2023/05/27 13:43:49;;;;;;;8.88;4.40;;;;;;;29.95;33.56;102478.84;6026825;29;20241;-73
2023/05/27 13:47:10;;;;;;;8.00;5.63;;;;;;;29.65;32.83;102477.72;6027917;29;20684;-73
2023/05/27 13:50:32;;;;;;;7.55;5.07;;;;;;;30.45;32.90;102463.91;6034959;29;20250;-73
2023/05/27 13:53:53;;;;;;;12.07;4.78;;;;;;;30.46;33.13;102460.03;6040739;29;20238;-72
2023/05/27 13:57:14;;;;;;;7.05;4.38;;;;;;;29.75;33.30;102456.72;6030354;29;20234;-72
2023/05/27 14:00:35;;;;;;;7.78;3.60;;;;;;;29.54;34.52;102457.03;6027681;29;20241;-73
2023/05/27 14:03:56;;;;;;;5.93;3.00;;;;;;;27.82;34.92;102448.38;6033353;29;20257;-73
2023/05/27 14:07:19;;;;;;;4.88;2.90;;;;;;;27.45;37.08;102448.94;6034286;29;20242;-72
2023/05/27 14:10:40;;;;;;;7.32;3.58;;;;;;;26.64;37.44;102445.09;6033946;29;20235;-73
2023/05/27 14:14:01;;;;;;;6.55;4.18;;;;;;;26.37;38.79;102440.44;6037404;29;20249;-73
2023/05/27 14:17:22;;;;;;;5.43;4.00;;;;;;;26.80;38.16;102438.41;6029567;29;20601;-74
2023/05/27 14:20:43;;;;;;;4.88;3.00;;;;;;;26.53;37.69;102442.91;6016657;29;20234;-72
2023/05/27 14:24:05;;;;;;;8.40;7.07;;;;;;;26.74;37.93;102429.00;6024760;29;20234;-73
2023/05/27 14:27:26;;;;;;;5.32;3.78;;;;;;;26.93;37.88;102427.41;6025759;29;20249;-73
2023/05/27 14:30:47;;;;;;;5.80;3.50;;;;;;;26.63;38.71;102429.56;6028803;29;20226;-73
2023/05/27 14:34:08;;;;;;;6.28;3.33;;;;;;;26.21;37.65;102417.75;6036551;29;20265;-73
2023/05/27 14:37:29;;;;;;;7.20;3.28;;;;;;;24.64;38.65;102421.47;6030220;29;20233;-73
2023/05/27 14:40:51;;;;;;;7.38;3.55;;;;;;;24.67;38.92;102416.41;6013791;29;20242;-74
2023/05/27 14:44:12;;;;;;;7.63;2.88;;;;;;;24.96;38.89;102416.41;6024933;29;20305;-75
2023/05/27 14:47:33;;;;;;;7.00;3.47;;;;;;;23.64;40.28;102419.97;6007454;29;20340;-77
2023/05/27 14:50:54;;;;;;;3.47;2.50;;;;;;;24.87;39.53;102409.28;6025720;29;20695;-79
2023/05/27 14:54:15;;;;;;;4.55;2.90;;;;;;;24.56;39.67;102406.72;6033949;29;20230;-76
2023/05/27 14:57:37;;;;;;;6.47;3.55;;;;;;;24.63;38.67;102408.69;6027684;29;20676;-77
2023/05/27 15:00:57;;;;;;;4.75;2.60;;;;;;;25.17;38.62;102402.66;6017743;29;20234;-77
2023/05/27 15:04:18;;;;;;;3.22;2.05;;;;;;;25.65;38.77;102400.22;6034625;29;20269;-74
2023/05/27 15:07:40;;;;;;;3.78;2.13;;;;;;;25.73;39.28;102389.03;6023729;29;20238;-71
2023/05/27 15:11:01;;;;;;;7.55;3.60;;;;;;;25.43;39.17;102387.47;6021457;29;20234;-72
2023/05/27 15:14:23;;;;;;;5.10;3.50;;;;;;;24.99;40.46;102387.59;6031132;29;20241;-72
2023/05/27 15:17:45;;;;;;;6.18;3.33;;;;;;;25.47;40.05;102380.50;6019942;29;20249;-73
2023/05/27 15:21:06;;;;;;;4.63;2.78;;;;;;;26.03;39.28;102371.22;6020292;29;20241;-72
2023/05/27 15:24:27;;;;;;;4.38;2.55;;;;;;;26.14;38.98;102374.31;6028587;29;20238;-73
2023/05/27 15:27:48;;;;;;;3.47;2.55;;;;;;;26.11;38.89;102373.88;6017296;29;20233;-71
2023/05/27 15:31:12;;;;;;;4.10;2.92;;;;;;;25.42;38.96;102381.09;6008200;29;20238;-75
2023/05/27 15:34:32;;;;;;;9.00;4.13;;;;;;;25.26;39.97;102373.88;6027166;29;20234;-74
2023/05/27 15:37:53;;;;;;;3.75;2.00;;;;;;;25.64;39.31;102371.72;6010034;29;20313;-78
2023/05/27 15:41:15;;;;;;;7.85;3.72;;;;;;;24.29;40.75;102366.00;6011235;29;20237;-79
2023/05/27 15:44:36;;;;;;;3.20;2.60;;;;;;;24.84;41.14;102362.78;6005070;29;20234;-76